Time;durP1;ratioP1;P1;durP2;ratioP2;P2;SDS_P1;SDS_P2;PMS_P1;PMS_P2;Temp;Humidity;BMP_temperature;BMP_pressure;BME280_temperature;BME280_humidity;BME280_pressure;Samples;Min_cycle;Max_cycle;Signal;HPM_P1;HPM_P2
2023/07/02 00:01:03;;;;;;;6.30;5.70;;;16.70;99.90;;;;;;5053877;28;20222;-85
2023/07/02 00:03:29;;;;;;;5.90;5.40;;;16.70;99.90;;;;;;5036482;28;20220;-85
2023/07/02 00:05:56;;;;;;;6.10;5.57;;;16.70;99.90;;;;;;5054207;28;20178;-85
2023/07/02 00:08:22;;;;;;;7.03;5.40;;;16.70;99.90;;;;;;5036145;28;20213;-85
2023/07/02 00:10:48;;;;;;;5.83;5.33;;;16.70;99.90;;;;;;5036597;28;20304;-84
2023/07/02 00:13:14;;;;;;;7.00;5.90;;;16.70;99.90;;;;;;5036292;28;20260;-85
2023/07/02 00:15:40;;;;;;;6.00;5.50;;;16.70;99.90;;;;;;5036134;28;20178;-84
2023/07/02 00:18:06;;;;;;;6.20;5.60;;;16.70;99.90;;;;;;5053724;28;20556;-84
2023/07/02 00:20:37;;;;;;;6.57;5.40;;;16.80;99.90;;;;;;5035563;28;20209;-84
2023/07/02 00:23:03;;;;;;;5.80;5.10;;;16.80;99.90;;;;;;5053831;28;20702;-84
2023/07/02 00:25:29;;;;;;;5.20;4.70;;;16.70;99.90;;;;;;5035852;28;20216;-84
2023/07/02 00:27:54;;;;;;;8.00;4.43;;;16.70;99.90;;;;;;5053638;28;20609;-84
2023/07/02 00:30:20;;;;;;;5.37;4.63;;;16.70;99.90;;;;;;5053031;28;20190;-84
2023/07/02 00:32:45;;;;;;;4.93;4.20;;;16.70;99.90;;;;;;5053593;28;20181;-84
2023/07/02 00:35:11;;;;;;;4.50;4.10;;;16.80;99.90;;;;;;5053583;28;20205;-84
2023/07/02 00:37:37;;;;;;;4.20;3.77;;;16.70;99.90;;;;;;5034727;28;20260;-84
2023/07/02 00:40:03;;;;;;;5.53;4.10;;;16.80;99.90;;;;;;5052791;28;20201;-84
2023/07/02 00:42:29;;;;;;;5.27;3.90;;;16.80;99.90;;;;;;5052936;28;20181;-84
2023/07/02 00:44:56;;;;;;;6.03;4.10;;;16.70;99.90;;;;;;5053230;28;20178;-84
2023/07/02 00:47:23;;;;;;;4.53;4.10;;;16.70;99.90;;;;;;5035647;28;20177;-84
2023/07/02 00:49:50;;;;;;;6.43;4.50;;;16.70;99.90;;;;;;5034677;28;20217;-83
2023/07/02 00:52:18;;;;;;;6.40;4.00;;;16.70;99.90;;;;;;5052969;28;20174;-84
2023/07/02 00:54:44;;;;;;;4.23;3.83;;;16.60;99.90;;;;;;5053175;28;20170;-84
2023/07/02 00:57:09;;;;;;;4.83;4.13;;;16.60;99.90;;;;;;5052992;28;20181;-84
2023/07/02 00:59:35;;;;;;;4.40;4.10;;;16.50;99.90;;;;;;5034960;28;20228;-82
2023/07/02 01:02:01;;;;;;;6.83;4.23;;;16.60;99.90;;;;;;5035296;28;20656;-84
2023/07/02 01:04:27;;;;;;;6.73;5.00;;;16.50;99.90;;;;;;5053121;28;20256;-84
2023/07/02 01:06:57;;;;;;;5.20;4.40;;;16.50;99.90;;;;;;5035182;28;20200;-84
2023/07/02 01:09:23;;;;;;;5.30;4.33;;;16.50;99.90;;;;;;5034884;28;20197;-84
2023/07/02 01:11:56;;;;;;;4.50;4.10;;;16.50;99.90;;;;;;5034512;28;20671;-84
2023/07/02 01:14:41;;;;;;;6.13;4.23;;;16.60;99.90;;;;;;5053145;28;20170;-84
2023/07/02 01:17:07;;;;;;;6.00;4.13;;;16.50;99.90;;;;;;5052510;28;20529;-84
2023/07/02 01:19:52;;;;;;;5.80;4.30;;;16.50;99.90;;;;;;5034710;28;20184;-84
2023/07/02 01:22:24;;;;;;;6.27;4.00;;;16.50;99.90;;;;;;5034826;28;20170;-84
2023/07/02 01:24:51;;;;;;;5.00;4.20;;;16.50;99.90;;;;;;5034904;28;20173;-84
2023/07/02 01:27:17;;;;;;;7.37;4.30;;;16.40;99.90;;;;;;5034923;28;20208;-84
2023/07/02 01:29:46;;;;;;;6.67;4.10;;;16.40;99.90;;;;;;5033973;28;20233;-84
2023/07/02 01:32:13;;;;;;;5.77;4.20;;;16.40;99.90;;;;;;5052414;28;20166;-84
2023/07/02 01:34:38;;;;;;;5.00;3.90;;;16.40;99.90;;;;;;5034824;28;20193;-84
2023/07/02 01:37:04;;;;;;;5.20;3.47;;;16.40;99.90;;;;;;5051838;28;20170;-84
2023/07/02 01:39:30;;;;;;;7.83;3.57;;;16.40;99.90;;;;;;5034560;28;20173;-83
2023/07/02 01:42:07;;;;;;;10.00;3.90;;;16.30;99.90;;;;;;5034168;28;20219;-84
2023/07/02 01:44:33;;;;;;;7.07;3.90;;;16.30;99.90;;;;;;5034506;28;20173;-84
2023/07/02 01:46:58;;;;;;;6.60;4.10;;;16.20;99.90;;;;;;5052121;28;20177;-84
2023/07/02 01:49:24;;;;;;;6.07;3.80;;;16.20;99.90;;;;;;5052199;28;20205;-84
2023/07/02 01:51:55;;;;;;;6.83;4.00;;;16.30;99.90;;;;;;5033975;28;20205;-84
2023/07/02 01:54:23;;;;;;;4.43;3.60;;;16.30;99.90;;;;;;5034408;28;20259;-84
2023/07/02 01:56:49;;;;;;;5.30;3.70;;;16.20;99.90;;;;;;5034398;28;20200;-84
2023/07/02 01:59:15;;;;;;;4.93;4.00;;;16.20;99.90;;;;;;5051853;28;20181;-84
2023/07/02 02:01:41;;;;;;;7.93;3.67;;;16.20;99.90;;;;;;5033765;28;20232;-84
2023/07/02 02:04:07;;;;;;;4.00;3.60;;;16.20;99.90;;;;;;5033268;28;20203;-84
2023/07/02 02:06:33;;;;;;;3.73;3.43;;;16.20;99.90;;;;;;5052409;28;20177;-84
2023/07/02 02:08:59;;;;;;;4.10;3.70;;;16.10;99.90;;;;;;5051980;28;20211;-84
2023/07/02 02:11:25;;;;;;;6.33;3.93;;;16.10;99.90;;;;;;5051368;28;20288;-84
2023/07/02 02:13:52;;;;;;;6.93;3.77;;;16.10;99.90;;;;;;5052113;28;20309;-84
2023/07/02 02:16:17;;;;;;;7.70;4.20;;;16.10;99.90;;;;;;5034481;28;20617;-84
2023/07/02 02:18:43;;;;;;;7.83;4.30;;;16.10;99.90;;;;;;5034427;28;20561;-84
2023/07/02 02:21:09;;;;;;;5.23;4.60;;;16.10;99.90;;;;;;5051458;28;20657;-83
2023/07/02 02:23:34;;;;;;;7.57;5.00;;;16.10;99.90;;;;;;5034053;28;20189;-84
2023/07/02 02:26:00;;;;;;;6.10;4.60;;;16.10;99.90;;;;;;5051795;28;20200;-84
2023/07/02 02:28:26;;;;;;;7.90;4.67;;;16.10;99.90;;;;;;5033861;28;20707;-84
2023/07/02 02:30:51;;;;;;;5.77;4.40;;;16.00;99.90;;;;;;5033397;28;20205;-84
2023/07/02 02:33:17;;;;;;;5.17;4.67;;;16.00;99.90;;;;;;5034221;28;20181;-84
2023/07/02 02:35:42;;;;;;;6.40;4.60;;;15.90;99.90;;;;;;5051757;28;20205;-84
2023/07/02 02:38:08;;;;;;;5.37;4.53;;;15.90;99.90;;;;;;5033129;28;20174;-85
2023/07/02 02:40:34;;;;;;;5.80;4.50;;;15.80;99.90;;;;;;5051075;28;20192;-84
2023/07/02 02:43:00;;;;;;;6.60;4.57;;;15.70;99.90;;;;;;5033864;28;20194;-84
2023/07/02 02:45:25;;;;;;;7.23;4.40;;;15.60;99.90;;;;;;5033735;28;20208;-84
2023/07/02 02:47:51;;;;;;;5.17;4.40;;;15.60;99.90;;;;;;5033689;28;20181;-84
2023/07/02 02:50:17;;;;;;;5.30;4.90;;;15.60;99.90;;;;;;5033171;28;20621;-84
2023/07/02 02:52:42;;;;;;;6.60;5.00;;;15.60;99.90;;;;;;5051645;28;20181;-84
2023/07/02 02:55:10;;;;;;;9.60;5.13;;;15.60;99.90;;;;;;5033866;28;20170;-84
2023/07/02 02:57:36;;;;;;;5.60;4.70;;;15.60;99.90;;;;;;5033910;28;20657;-84
2023/07/02 03:00:02;;;;;;;4.83;4.43;;;15.60;99.90;;;;;;5050993;28;20225;-84
2023/07/02 03:02:28;;;;;;;5.20;4.70;;;15.60;99.90;;;;;;5033645;28;20177;-85
2023/07/02 03:04:53;;;;;;;6.67;4.50;;;15.60;99.90;;;;;;5051497;28;20174;-84
2023/07/02 03:07:19;;;;;;;8.13;4.87;;;15.60;99.90;;;;;;5033848;28;20559;-84
2023/07/02 03:09:45;;;;;;;5.60;4.60;;;15.60;99.90;;;;;;5032764;28;20307;-84
2023/07/02 03:12:10;;;;;;;7.83;4.80;;;15.60;99.90;;;;;;5033633;28;20174;-84
2023/07/02 03:14:36;;;;;;;7.63;4.93;;;15.60;99.90;;;;;;5035280;28;20208;-84
2023/07/02 03:17:02;;;;;;;5.87;5.00;;;15.60;99.90;;;;;;5055006;28;20645;-84
2023/07/02 03:19:28;;;;;;;7.20;4.80;;;15.60;99.90;;;;;;5055081;28;20555;-84
2023/07/02 03:21:54;;;;;;;7.47;5.10;;;15.60;99.90;;;;;;5036742;28;20637;-84
2023/07/02 03:24:19;;;;;;;6.90;5.37;;;15.60;99.90;;;;;;5036918;28;20173;-84
2023/07/02 03:26:45;;;;;;;5.87;4.83;;;15.60;99.90;;;;;;5037265;28;20173;-85
2023/07/02 03:29:11;;;;;;;7.23;4.90;;;15.60;99.90;;;;;;5054775;28;20228;-84
2023/07/02 03:31:37;;;;;;;7.23;4.93;;;15.60;99.90;;;;;;5036425;28;20190;-84
2023/07/02 03:34:09;;;;;;;8.30;5.10;;;15.60;99.90;;;;;;5054683;28;20165;-84
2023/07/02 03:36:36;;;;;;;6.80;5.33;;;15.60;99.90;;;;;;5053810;28;20170;-83
2023/07/02 03:39:03;;;;;;;6.20;5.60;;;15.60;99.90;;;;;;5054739;28;20178;-84
2023/07/02 03:41:29;;;;;;;6.63;5.30;;;15.70;99.90;;;;;;5036095;28;20212;-84
2023/07/02 03:43:54;;;;;;;6.40;5.20;;;15.70;99.90;;;;;;5036787;28;20561;-84
2023/07/02 03:46:20;;;;;;;6.13;5.50;;;15.70;99.90;;;;;;5054663;28;20170;-84
2023/07/02 03:48:45;;;;;;;6.50;5.53;;;15.70;99.90;;;;;;5036559;28;20219;-84
2023/07/02 03:51:14;;;;;;;9.07;5.70;;;15.70;99.90;;;;;;5053768;28;20190;-84
2023/07/02 03:53:40;;;;;;;6.27;5.50;;;15.70;99.90;;;;;;5036727;28;20247;-84
2023/07/02 03:56:06;;;;;;;8.20;5.80;;;15.70;99.90;;;;;;5054400;28;20172;-83
2023/07/02 03:58:31;;;;;;;8.27;5.57;;;15.70;99.90;;;;;;5054389;28;20258;-84
2023/07/02 04:00:57;;;;;;;6.13;5.53;;;15.70;99.90;;;;;;5053939;28;20197;-84
2023/07/02 04:03:22;;;;;;;10.47;5.73;;;15.70;99.90;;;;;;5036219;28;20232;-84
2023/07/02 04:05:48;;;;;;;8.67;5.80;;;15.70;99.90;;;;;;5036135;28;20174;-84
2023/07/02 04:08:15;;;;;;;6.93;5.47;;;15.80;99.90;;;;;;5036172;28;20555;-84
2023/07/02 04:10:41;;;;;;;7.40;5.50;;;15.80;99.90;;;;;;5035581;28;20212;-84
2023/07/02 04:13:06;;;;;;;6.97;5.60;;;15.70;99.90;;;;;;5054149;28;20165;-84
2023/07/02 04:15:32;;;;;;;9.07;5.53;;;15.70;99.90;;;;;;5036189;28;20185;-84
2023/07/02 04:17:58;;;;;;;6.17;5.57;;;15.70;99.90;;;;;;5035924;28;20208;-84
2023/07/02 04:20:23;;;;;;;8.20;5.80;;;15.70;99.90;;;;;;5035501;28;20220;-84
2023/07/02 04:22:49;;;;;;;6.37;5.43;;;15.60;99.90;;;;;;5054013;28;20182;-84
2023/07/02 04:25:15;;;;;;;6.80;5.60;;;15.70;99.90;;;;;;5035834;28;20182;-84
2023/07/02 04:27:42;;;;;;;9.43;5.30;;;15.70;99.90;;;;;;5053377;28;20182;-84
2023/07/02 04:30:09;;;;;;;8.53;5.23;;;15.70;99.90;;;;;;5053328;28;20678;-84
2023/07/02 04:32:35;;;;;;;7.60;5.50;;;15.70;99.90;;;;;;5053334;28;20173;-84
2023/07/02 04:35:01;;;;;;;7.20;5.40;;;15.60;99.90;;;;;;5035796;28;20176;-82
2023/07/02 04:37:28;;;;;;;7.17;5.07;;;15.60;99.90;;;;;;5052978;28;20208;-84
2023/07/02 04:39:54;;;;;;;7.23;5.17;;;15.60;99.90;;;;;;5035249;28;20197;-83
2023/07/02 04:42:19;;;;;;;7.53;5.80;;;15.70;99.90;;;;;;5053911;28;20188;-84
2023/07/02 04:44:45;;;;;;;5.30;4.80;;;15.70;99.90;;;;;;5035474;28;20173;-84
2023/07/02 04:47:11;;;;;;;5.97;5.37;;;15.70;99.90;;;;;;5035688;28;20181;-84
2023/07/02 04:49:37;;;;;;;5.70;4.47;;;15.70;99.90;;;;;;5053517;28;20236;-83
2023/07/02 04:52:03;;;;;;;6.03;4.97;;;15.60;99.90;;;;;;5053538;28;20177;-84
2023/07/02 04:54:29;;;;;;;5.43;4.93;;;15.60;99.90;;;;;;5035331;28;20177;-84
2023/07/02 04:56:54;;;;;;;6.33;4.93;;;15.70;99.90;;;;;;5035302;28;20260;-84
2023/07/02 04:59:21;;;;;;;8.20;5.10;;;15.70;99.90;;;;;;5035105;28;20186;-84
2023/07/02 05:01:47;;;;;;;6.37;4.87;;;15.80;99.90;;;;;;5052472;28;20174;-84
2023/07/02 05:04:13;;;;;;;6.60;4.87;;;15.70;99.90;;;;;;5035338;28;20182;-84
2023/07/02 05:06:38;;;;;;;5.70;5.20;;;15.70;99.90;;;;;;5035343;28;20177;-84
2023/07/02 05:09:04;;;;;;;5.63;5.10;;;15.70;99.90;;;;;;5034966;28;20193;-82
2023/07/02 05:11:30;;;;;;;7.63;4.80;;;15.70;99.90;;;;;;5034902;28;20205;-81
2023/07/02 05:13:55;;;;;;;5.70;4.93;;;15.80;99.90;;;;;;5035421;28;20197;-81
2023/07/02 05:16:21;;;;;;;5.77;4.43;;;15.80;99.90;;;;;;5035299;28;20176;-81
2023/07/02 05:18:46;;;;;;;4.63;4.23;;;15.80;99.90;;;;;;5035556;28;20217;-82
2023/07/02 05:21:12;;;;;;;6.50;4.47;;;15.80;99.90;;;;;;5052738;28;20221;-81
2023/07/02 05:23:38;;;;;;;4.77;4.27;;;15.80;99.90;;;;;;5035170;28;20177;-81
2023/07/02 05:26:03;;;;;;;5.00;4.30;;;15.80;99.90;;;;;;5035081;28;20547;-81
2023/07/02 05:28:29;;;;;;;7.07;4.53;;;15.80;99.90;;;;;;5035225;28;20197;-81
2023/07/02 05:30:54;;;;;;;4.67;4.27;;;15.80;99.90;;;;;;5052486;28;20193;-81
2023/07/02 05:33:21;;;;;;;7.43;4.30;;;15.80;99.90;;;;;;5035537;28;20209;-81
2023/07/02 05:35:48;;;;;;;5.10;4.60;;;15.90;99.90;;;;;;5053129;28;20215;-82
2023/07/02 05:38:13;;;;;;;5.93;4.13;;;15.90;99.90;;;;;;5034317;28;20177;-81
2023/07/02 05:40:39;;;;;;;4.43;4.03;;;16.00;99.90;;;;;;5052174;28;20193;-81
2023/07/02 05:43:04;;;;;;;4.17;3.77;;;16.00;99.90;;;;;;5034977;28;20268;-81
2023/07/02 05:45:30;;;;;;;4.17;3.73;;;15.90;99.90;;;;;;5035031;28;20181;-81
2023/07/02 05:47:56;;;;;;;7.33;3.87;;;15.90;99.90;;;;;;5052845;28;20174;-82
2023/07/02 05:50:21;;;;;;;3.97;3.57;;;15.90;99.90;;;;;;5034341;28;20633;-81
2023/07/02 05:52:47;;;;;;;5.73;3.80;;;15.90;99.90;;;;;;5035118;28;20181;-81
2023/07/02 05:55:12;;;;;;;5.90;3.70;;;15.90;99.90;;;;;;5034859;28;20182;-81
2023/07/02 05:57:38;;;;;;;5.70;3.23;;;15.90;99.90;;;;;;5034873;28;20172;-82
2023/07/02 06:00:06;;;;;;;6.00;4.00;;;15.90;99.90;;;;;;5034469;28;20196;-81
2023/07/02 06:02:32;;;;;;;4.37;3.20;;;15.90;99.90;;;;;;5034440;28;20224;-82
2023/07/02 06:04:58;;;;;;;6.03;3.67;;;15.90;99.90;;;;;;5034582;28;20641;-82
2023/07/02 06:07:27;;;;;;;4.10;3.43;;;15.90;99.90;;;;;;5034491;28;20177;-81
2023/07/02 06:09:58;;;;;;;4.30;3.30;;;15.90;99.90;;;;;;5034701;28;20708;-81
2023/07/02 06:12:24;;;;;;;6.53;3.60;;;15.90;99.90;;;;;;5034850;28;20172;-82
2023/07/02 06:14:50;;;;;;;5.17;3.50;;;16.00;99.90;;;;;;5034525;28;20173;-83
2023/07/02 06:17:15;;;;;;;7.97;3.50;;;16.00;99.90;;;;;;5052333;28;20170;-83
2023/07/02 06:19:41;;;;;;;5.93;3.67;;;16.00;99.90;;;;;;5051821;28;20193;-81
2023/07/02 06:22:07;;;;;;;4.00;3.17;;;16.00;99.90;;;;;;5034327;28;20180;-82
2023/07/02 06:24:32;;;;;;;6.60;3.63;;;15.90;99.90;;;;;;5052648;28;20188;-82
2023/07/02 06:26:58;;;;;;;6.70;3.10;;;15.90;99.90;;;;;;5052505;28;20184;-82
2023/07/02 06:29:24;;;;;;;4.30;2.97;;;15.80;99.90;;;;;;5034377;28;20278;-82
2023/07/02 06:31:50;;;;;;;5.33;3.20;;;15.70;99.90;;;;;;5051833;28;20174;-82
2023/07/02 06:34:16;;;;;;;4.37;3.03;;;15.80;99.90;;;;;;5034505;28;20170;-82
2023/07/02 06:36:42;;;;;;;5.03;3.13;;;15.90;99.90;;;;;;5051587;28;20170;-82
2023/07/02 06:39:09;;;;;;;5.30;3.33;;;15.90;99.90;;;;;;5034657;28;20200;-80
2023/07/02 06:41:35;;;;;;;5.93;3.20;;;15.90;99.90;;;;;;5033739;28;20201;-82
2023/07/02 06:44:00;;;;;;;4.10;3.10;;;15.90;99.90;;;;;;5034232;28;20653;-81
2023/07/02 06:46:26;;;;;;;6.13;3.47;;;15.90;99.90;;;;;;5052189;28;20185;-82
2023/07/02 06:48:51;;;;;;;5.10;3.47;;;16.00;99.90;;;;;;5034411;28;20197;-82
2023/07/02 06:51:18;;;;;;;3.93;3.20;;;16.00;99.90;;;;;;5055551;28;20193;-82
2023/07/02 06:53:45;;;;;;;6.47;3.30;;;16.10;99.90;;;;;;5056184;28;20269;-82
2023/07/02 06:56:10;;;;;;;5.60;3.73;;;16.00;99.90;;;;;;5038291;28;20178;-82
2023/07/02 06:58:36;;;;;;;5.97;3.37;;;16.00;99.90;;;;;;5037968;28;20177;-82
2023/07/02 07:01:02;;;;;;;6.93;3.77;;;16.10;99.90;;;;;;5055239;28;20229;-82
2023/07/02 07:03:28;;;;;;;6.83;3.70;;;16.10;99.90;;;;;;5037711;28;20671;-82
2023/07/02 07:05:54;;;;;;;7.13;4.33;;;16.10;99.90;;;;;;5055614;28;20201;-82
2023/07/02 07:08:19;;;;;;;6.37;3.90;;;16.10;99.90;;;;;;5055675;28;20268;-82
2023/07/02 07:10:45;;;;;;;7.73;4.03;;;16.00;99.90;;;;;;5054836;28;20217;-82
2023/07/02 07:13:11;;;;;;;6.17;4.63;;;16.00;99.90;;;;;;5037726;28;20636;-82
2023/07/02 07:15:37;;;;;;;6.93;4.30;;;16.10;99.90;;;;;;5037879;28;20590;-82
2023/07/02 07:18:03;;;;;;;7.57;5.00;;;16.20;99.90;;;;;;5037441;28;20645;-82
2023/07/02 07:20:30;;;;;;;10.73;5.33;;;16.20;99.90;;;;;;5036766;28;20676;-82
2023/07/02 07:22:56;;;;;;;8.10;4.70;;;16.20;63.60;;;;;;5037974;28;20228;-82
2023/07/02 07:25:21;;;;;;;7.00;5.00;;;16.30;55.40;;;;;;5037606;28;20186;-82
2023/07/02 07:27:47;;;;;;;9.10;5.63;;;16.30;38.80;;;;;;5055218;28;20178;-81
2023/07/02 07:30:14;;;;;;;11.30;5.20;;;16.40;1.00;;;;;;5036770;28;20640;-82
2023/07/02 07:32:40;;;;;;;8.20;5.57;;;16.40;1.00;;;;;;5055046;28;20252;-82
2023/07/02 07:35:07;;;;;;;10.00;5.50;;;16.50;1.00;;;;;;5038600;28;20231;-82
2023/07/02 07:37:32;;;;;;;8.43;5.33;;;16.60;1.00;;;;;;5036429;28;20173;-82
2023/07/02 07:39:58;;;;;;;9.10;5.43;;;16.60;1.00;;;;;;5054656;28;20216;-82
2023/07/02 07:42:24;;;;;;;7.40;4.90;;;16.60;1.00;;;;;;5054921;28;20200;-82
2023/07/02 07:44:49;;;;;;;8.63;4.97;;;16.70;1.00;;;;;;5053729;28;20190;-82
2023/07/02 07:47:15;;;;;;;8.23;5.20;;;16.70;1.00;;;;;;5055210;28;20181;-82
2023/07/02 07:49:41;;;;;;;9.13;5.47;;;16.80;1.00;;;;;;5036329;28;20209;-82
2023/07/02 07:52:07;;;;;;;8.37;5.00;;;16.80;1.00;;;;;;5054924;28;20273;-82
2023/07/02 07:54:35;;;;;;;8.17;5.53;;;16.80;1.00;;;;;;5037025;28;20209;-82
2023/07/02 07:57:01;;;;;;;7.03;5.30;;;16.70;1.00;;;;;;5054702;28;20178;-82
2023/07/02 07:59:26;;;;;;;9.40;4.67;;;16.60;1.00;;;;;;5036676;28;20226;-82
2023/07/02 08:01:52;;;;;;;8.33;5.30;;;16.60;4.80;;;;;;5053279;28;20177;-82
2023/07/02 08:04:17;;;;;;;9.63;5.43;;;16.70;31.90;;;;;;5036850;28;20204;-82
2023/07/02 08:06:43;;;;;;;8.60;5.50;;;16.70;2.50;;;;;;5036686;28;20177;-82
2023/07/02 08:09:09;;;;;;;10.37;5.97;;;16.70;1.00;;;;;;5037161;28;20698;-83
2023/07/02 08:11:35;;;;;;;8.93;5.60;;;16.80;1.00;;;;;;5054118;28;20216;-82
2023/07/02 08:14:00;;;;;;;8.43;5.90;;;16.80;1.00;;;;;;5036630;28;20264;-82
2023/07/02 08:16:26;;;;;;;9.50;6.20;;;16.80;1.00;;;;;;5054490;28;20172;-82
2023/07/02 08:18:51;;;;;;;10.97;6.27;;;16.70;1.00;;;;;;5054552;28;20178;-82
2023/07/02 08:21:17;;;;;;;8.47;6.10;;;16.70;1.00;;;;;;5053687;28;20224;-82
2023/07/02 08:23:44;;;;;;;10.00;6.30;;;16.70;1.00;;;;;;5036535;28;20223;-83
2023/07/02 08:26:10;;;;;;;8.23;6.63;;;16.70;1.00;;;;;;5036425;28;20227;-82
2023/07/02 08:28:37;;;;;;;7.90;5.97;;;16.90;1.00;;;;;;5053951;28;20209;-82
2023/07/02 08:31:03;;;;;;;12.70;6.60;;;16.90;1.00;;;;;;5035290;28;20590;-82
2023/07/02 08:33:29;;;;;;;11.80;6.73;;;17.00;1.00;;;;;;5054147;28;20648;-82
2023/07/02 08:35:55;;;;;;;11.43;7.17;;;16.90;1.00;;;;;;5036250;28;20166;-82
2023/07/02 08:38:20;;;;;;;8.40;6.70;;;17.00;1.00;;;;;;5034944;28;20185;-82
2023/07/02 08:40:46;;;;;;;10.97;6.83;;;16.90;1.00;;;;;;5035783;28;20288;-82
2023/07/02 08:43:12;;;;;;;10.67;7.20;;;16.90;1.00;;;;;;5053780;28;20181;-82
2023/07/02 08:45:40;;;;;;;11.60;7.10;;;17.00;1.00;;;;;;5036125;28;20181;-82
2023/07/02 08:48:06;;;;;;;7.97;6.30;;;17.00;1.00;;;;;;5053772;28;20542;-82
2023/07/02 08:50:31;;;;;;;11.57;7.23;;;17.10;1.00;;;;;;5053085;28;20205;-83
2023/07/02 08:52:57;;;;;;;11.47;7.47;;;17.30;1.00;;;;;;5053445;28;20185;-82
2023/07/02 08:55:22;;;;;;;9.77;7.00;;;17.40;99.90;;;;;;5035800;28;20181;-83
2023/07/02 08:57:52;;;;;;;11.40;7.10;;;17.30;99.90;;;;;;5053371;28;20174;-82
2023/07/02 09:00:18;;;;;;;12.17;7.27;;;17.40;99.90;;;;;;5052830;28;20198;-82
2023/07/02 09:02:44;;;;;;;11.87;7.50;;;17.20;99.90;;;;;;5053467;28;20188;-82
2023/07/02 09:05:10;;;;;;;10.57;6.80;;;17.20;1.00;;;;;;5053256;28;20652;-82
2023/07/02 09:07:50;;;;;;;11.00;7.07;;;17.20;1.00;;;;;;5053808;28;20231;-82
2023/07/02 09:10:30;;;;;;;13.17;7.70;;;17.20;1.00;;;;;;5034520;28;20263;-82
2023/07/02 09:13:06;;;;;;;11.23;6.93;;;17.20;1.00;;;;;;5052903;28;20173;-82
2023/07/02 09:15:39;;;;;;;12.83;8.00;;;17.30;1.00;;;;;;5053197;28;20173;-82
2023/07/02 09:18:15;;;;;;;12.93;7.20;;;17.30;1.00;;;;;;5035151;28;20170;-83
2023/07/02 09:20:40;;;;;;;11.00;7.10;;;17.40;2.30;;;;;;5034973;28;20196;-82
2023/07/02 09:23:06;;;;;;;13.27;7.97;;;17.60;99.90;;;;;;5053106;28;20178;-82
2023/07/02 09:25:37;;;;;;;11.67;7.90;;;17.70;1.00;;;;;;5052861;28;20173;-82
2023/07/02 09:28:13;;;;;;;10.73;7.40;;;17.80;93.80;;;;;;5035100;28;20177;-82
2023/07/02 09:30:52;;;;;;;10.90;7.47;;;18.00;1.00;;;;;;5034249;28;20204;-82
2023/07/02 09:33:18;;;;;;;12.47;7.63;;;18.10;1.00;;;;;;5053186;28;20168;-82
2023/07/02 09:35:44;;;;;;;10.07;7.50;;;18.00;99.90;;;;;;5035029;28;20260;-83
2023/07/02 09:38:11;;;;;;;11.83;7.17;;;17.90;1.00;;;;;;5033549;28;20177;-82
2023/07/02 09:40:47;;;;;;;9.30;6.73;;;17.80;1.00;;;;;;5033986;28;20284;-83
2023/07/02 09:43:14;;;;;;;9.53;6.73;;;17.70;1.00;;;;;;5034983;28;20231;-83
2023/07/02 09:45:45;;;;;;;9.67;6.80;;;17.70;1.00;;;;;;5052929;28;20264;-82
2023/07/02 09:48:14;;;;;;;11.20;6.83;;;17.70;1.00;;;;;;5052491;28;20525;-82
2023/07/02 09:50:44;;;;;;;10.87;7.23;;;17.70;1.00;;;;;;5034202;28;20193;-83
2023/07/02 09:53:11;;;;;;;10.73;7.07;;;17.80;1.00;;;;;;5052357;28;20166;-82
2023/07/02 09:55:41;;;;;;;11.97;7.13;;;18.30;1.00;;;;;;5034894;28;20169;-82
2023/07/02 09:58:07;;;;;;;13.13;6.93;;;18.60;95.90;;;;;;5034748;28;20177;-82
2023/07/02 10:00:34;;;;;;;10.47;6.27;;;19.00;99.90;;;;;;5052455;28;20566;-82
2023/07/02 10:03:00;;;;;;;11.93;7.30;;;19.20;1.00;;;;;;5034765;28;20264;-83
2023/07/02 10:05:30;;;;;;;11.93;7.37;;;19.10;1.00;;;;;;5052669;28;20177;-82
2023/07/02 10:07:57;;;;;;;11.77;7.07;;;19.00;1.00;;;;;;5034956;28;20177;-82
2023/07/02 10:10:32;;;;;;;10.63;6.83;;;18.90;1.00;;;;;;5051725;28;20598;-82
2023/07/02 10:12:58;;;;;;;10.80;6.77;;;19.10;1.00;;;;;;5034911;28;20181;-82
2023/07/02 10:15:25;;;;;;;11.90;6.80;;;19.50;99.90;;;;;;5034667;28;20170;-82
2023/07/02 10:17:56;;;;;;;11.87;7.17;;;19.80;1.00;;;;;;5052461;28;20177;-82
2023/07/02 10:20:36;;;;;;;10.93;6.83;;;20.00;99.90;;;;;;5034253;28;20201;-82
2023/07/02 10:23:02;;;;;;;9.33;6.57;;;19.80;99.90;;;;;;5052593;28;20585;-82
2023/07/02 10:25:30;;;;;;;12.60;6.77;;;19.60;1.00;;;;;;5037535;28;20195;-82
2023/07/02 10:27:55;;;;;;;10.00;6.57;;;19.50;1.00;;;;;;5058718;28;20183;-82
2023/07/02 10:30:36;;;;;;;11.57;6.60;;;19.80;99.90;;;;;;5044002;28;20217;-84
2023/07/02 10:33:11;;;;;;;11.00;6.50;;;20.40;1.00;;;;;;5062276;28;20169;-82
2023/07/02 10:35:38;;;;;;;9.77;6.30;;;20.80;1.00;;;;;;5060180;28;20182;-83
2023/07/02 10:38:06;;;;;;;10.93;6.90;;;20.70;60.20;;;;;;5061825;28;20181;-83
2023/07/02 10:40:33;;;;;;;9.27;6.65;;;20.70;6.10;;;;;;5063431;28;20198;-82
2023/07/02 10:42:58;;;;;;;9.27;6.50;;;20.50;99.90;;;;;;5044508;28;20277;-85
2023/07/02 10:45:32;;;;;;;10.25;6.38;;;20.40;1.00;;;;;;5040893;28;20201;-82
2023/07/02 10:47:58;;;;;;;8.05;6.35;;;20.20;99.90;;;;;;5056328;28;20182;-82
2023/07/02 10:50:23;;;;;;;8.75;6.00;;;20.20;1.00;;;;;;5037689;28;20213;-82
2023/07/02 10:52:52;;;;;;;7.78;5.95;;;20.40;99.90;;;;;;5056356;28;20173;-82
2023/07/02 10:55:22;;;;;;;8.52;5.63;;;20.30;81.70;;;;;;5056212;28;20177;-82
2023/07/02 10:57:52;;;;;;;9.20;6.18;;;20.10;99.90;;;;;;5037861;28;20174;-82
2023/07/02 11:00:18;;;;;;;9.98;6.18;;;20.00;99.90;;;;;;5037414;28;20197;-82
2023/07/02 11:02:44;;;;;;;10.77;6.78;;;20.00;99.90;;;;;;5055891;28;20236;-83
2023/07/02 11:05:13;;;;;;;10.57;6.80;;;20.00;1.00;;;;;;5042356;28;20216;-82
2023/07/02 11:07:39;;;;;;;9.73;6.50;;;20.00;1.00;;;;;;5060392;28;20188;-83
2023/07/02 11:10:07;;;;;;;9.15;6.43;;;20.10;1.00;;;;;;5054748;28;20280;-82
2023/07/02 11:12:33;;;;;;;12.38;6.35;;;20.30;1.00;;;;;;5055745;28;20233;-82
2023/07/02 11:15:13;;;;;;;9.95;6.80;;;20.40;1.00;;;;;;5037903;28;20189;-83
2023/07/02 11:17:41;;;;;;;10.43;5.78;;;20.70;1.00;;;;;;5055370;28;20256;-83
2023/07/02 11:20:08;;;;;;;8.30;5.85;;;20.80;1.00;;;;;;5054447;28;20201;-82
2023/07/02 11:22:36;;;;;;;10.07;6.13;;;20.80;1.00;;;;;;5040980;28;20204;-83
2023/07/02 11:25:21;;;;;;;6.95;5.03;;;20.80;1.00;;;;;;5037375;28;20256;-83
2023/07/02 11:27:47;;;;;;;8.35;5.32;;;20.90;1.00;;;;;;5038161;28;20181;-85
2023/07/02 11:30:13;;;;;;;7.85;5.95;;;21.20;1.00;;;;;;5056367;28;20201;-83
2023/07/02 11:32:49;;;;;;;7.30;5.30;;;21.60;99.90;;;;;;5055110;28;20264;-82
2023/07/02 11:35:16;;;;;;;7.60;5.55;;;21.50;1.00;;;;;;5037256;28;20275;-82
2023/07/02 11:37:41;;;;;;;7.53;5.70;;;21.40;1.00;;;;;;5053554;28;20179;-82
2023/07/02 11:40:08;;;;;;;8.68;5.55;;;21.60;1.00;;;;;;5054222;28;20284;-83
2023/07/02 11:42:33;;;;;;;8.57;6.00;;;21.60;1.00;;;;;;5037104;28;20173;-83
2023/07/02 11:44:59;;;;;;;8.55;5.40;;;21.60;1.00;;;;;;5054870;28;20185;-83
2023/07/02 11:47:27;;;;;;;9.98;5.93;;;21.60;1.00;;;;;;5037465;28;20226;-82
2023/07/02 11:49:52;;;;;;;8.23;5.35;;;21.30;1.00;;;;;;5054320;28;20336;-82
2023/07/02 11:52:18;;;;;;;10.68;6.13;;;21.10;1.00;;;;;;5036924;28;20264;-83
2023/07/02 11:54:44;;;;;;;10.00;5.85;;;21.00;99.90;;;;;;5054851;28;20174;-83
2023/07/02 11:57:09;;;;;;;8.80;5.80;;;21.10;99.90;;;;;;5054637;28;20162;-83
2023/07/02 11:59:36;;;;;;;8.20;5.55;;;21.20;1.00;;;;;;5036081;28;20233;-81
2023/07/02 12:02:02;;;;;;;7.70;5.50;;;21.60;1.00;;;;;;5036669;28;20177;-83
2023/07/02 12:04:27;;;;;;;6.72;5.43;;;21.70;1.00;;;;;;5054529;28;20173;-83
2023/07/02 12:06:53;;;;;;;7.70;5.95;;;21.60;1.00;;;;;;5036711;28;20181;-83
2023/07/02 12:09:18;;;;;;;9.10;5.97;;;21.40;99.90;;;;;;5054340;28;20549;-83
2023/07/02 12:11:45;;;;;;;8.27;5.75;;;21.30;99.90;;;;;;5097060;22;20233;-87
2023/07/02 12:14:11;;;;;;;8.88;5.72;;;21.20;99.90;;;;;;5039574;28;20176;-87
2023/07/02 12:16:37;;;;;;;10.07;6.03;;;21.50;99.90;;;;;;5057821;28;20587;-87
2023/07/02 12:19:03;;;;;;;8.30;5.90;;;21.70;31.20;;;;;;5039612;28;20173;-87
2023/07/02 12:21:28;;;;;;;8.55;6.00;;;21.80;1.00;;;;;;5039339;28;20204;-88
2023/07/02 12:23:54;;;;;;;11.15;6.13;;;21.70;1.00;;;;;;5039662;28;20178;-87
2023/07/02 12:26:20;;;;;;;9.25;5.95;;;21.90;1.00;;;;;;5040221;28;20174;-87
2023/07/02 12:28:45;;;;;;;8.77;6.28;;;22.10;1.00;;;;;;5057251;28;20197;-87
2023/07/02 12:31:12;;;;;;;8.25;5.80;;;22.00;1.00;;;;;;5057188;28;20189;-88
2023/07/02 12:33:38;;;;;;;8.77;6.40;;;22.00;1.00;;;;;;5040475;28;20195;-87
2023/07/02 12:36:04;;;;;;;9.07;6.20;;;21.80;1.00;;;;;;5058051;28;20194;-87
2023/07/02 12:38:29;;;;;;;8.13;5.68;;;21.70;1.00;;;;;;5038697;28;20166;-87
2023/07/02 12:40:55;;;;;;;8.77;6.22;;;21.60;99.90;;;;;;5039866;28;20190;-89
2023/07/02 12:43:21;;;;;;;9.48;6.13;;;21.60;1.00;;;;;;5041207;28;20196;-87
2023/07/02 12:45:47;;;;;;;10.15;6.03;;;21.40;1.00;;;;;;5040463;28;20261;-86